sensor_id;sensor_type;location;lat;lon;timestamp;pressure;altitude;pressure_sealevel;temperature;humidity
25664;BME280;13522;50.018;20.014;2023-03-03T00:26:25;99158.48;;;-0.59;100.00
25664;BME280;13522;50.018;20.014;2023-03-03T00:29:45;99160.31;;;-0.61;100.00
25664;BME280;13522;50.018;20.014;2023-03-03T00:33:28;99150.28;;;-0.70;100.00
25664;BME280;13522;50.018;20.014;2023-03-03T01:01:37;99130.02;;;-0.64;100.00
25664;BME280;13522;50.018;20.014;2023-03-03T01:23:51;99113.58;;;-0.86;100.00
25664;BME280;13522;50.018;20.014;2023-03-03T01:33:04;99116.63;;;-0.97;100.00
25664;BME280;13522;50.018;20.014;2023-03-03T02:04:12;99121.95;;;-1.41;100.00
25664;BME280;13522;50.018;20.014;2023-03-03T02:07:29;99112.14;;;-1.35;100.00
25664;BME280;13522;50.018;20.014;2023-03-03T02:10:44;99116.42;;;-1.34;100.00
25664;BME280;13522;50.018;20.014;2023-03-03T02:13:58;99121.53;;;-1.31;100.00
25664;BME280;13522;50.018;20.014;2023-03-03T02:17:29;99117.21;;;-1.32;100.00
25664;BME280;13522;50.018;20.014;2023-03-03T02:54:58;99109.27;;;-1.50;100.00
25664;BME280;13522;50.018;20.014;2023-03-03T02:58:11;99110.13;;;-1.50;100.00
25664;BME280;13522;50.018;20.014;2023-03-03T03:04:25;99118.88;;;-1.74;100.00
25664;BME280;13522;50.018;20.014;2023-03-03T03:10:58;99113.80;;;-1.77;100.00
25664;BME280;13522;50.018;20.014;2023-03-03T03:14:13;99118.84;;;-1.72;100.00
25664;BME280;13522;50.018;20.014;2023-03-03T03:39:07;99099.08;;;-1.78;100.00
25664;BME280;13522;50.018;20.014;2023-03-03T03:48:22;99115.06;;;-1.87;100.00
25664;BME280;13522;50.018;20.014;2023-03-03T03:51:56;99115.16;;;-1.90;100.00
25664;BME280;13522;50.018;20.014;2023-03-03T03:55:11;99111.77;;;-1.92;100.00
25664;BME280;13522;50.018;20.014;2023-03-03T04:14:06;99111.49;;;-2.08;100.00
25664;BME280;13522;50.018;20.014;2023-03-03T04:26:19;99107.27;;;-2.10;100.00
25664;BME280;13522;50.018;20.014;2023-03-03T04:29:33;99108.16;;;-2.11;100.00
25664;BME280;13522;50.018;20.014;2023-03-03T04:32:47;99108.09;;;-2.10;100.00
25664;BME280;13522;50.018;20.014;2023-03-03T04:48:12;99112.19;;;-2.26;100.00
25664;BME280;13522;50.018;20.014;2023-03-03T04:54:46;99109.75;;;-2.30;100.00
25664;BME280;13522;50.018;20.014;2023-03-03T04:58:08;99116.82;;;-2.34;100.00
25664;BME280;13522;50.018;20.014;2023-03-03T05:01:23;99121.04;;;-2.31;100.00
25664;BME280;13522;50.018;20.014;2023-03-03T05:07:37;99119.42;;;-2.34;100.00
25664;BME280;13522;50.018;20.014;2023-03-03T05:11:05;99120.25;;;-2.33;100.00
25664;BME280;13522;50.018;20.014;2023-03-03T05:14:31;99125.36;;;-2.30;100.00
25664;BME280;13522;50.018;20.014;2023-03-03T05:17:43;99123.77;;;-2.34;100.00
25664;BME280;13522;50.018;20.014;2023-03-03T05:20:58;99124.50;;;-2.31;100.00
25664;BME280;13522;50.018;20.014;2023-03-03T05:24:12;99121.80;;;-2.28;100.00
25664;BME280;13522;50.018;20.014;2023-03-03T05:30:48;99122.81;;;-2.32;100.00
25664;BME280;13522;50.018;20.014;2023-03-03T05:37:22;99134.91;;;-2.31;100.00
25664;BME280;13522;50.018;20.014;2023-03-03T05:43:37;99136.42;;;-2.25;100.00
25664;BME280;13522;50.018;20.014;2023-03-03T05:50:34;99139.22;;;-2.07;100.00
25664;BME280;13522;50.018;20.014;2023-03-03T05:56:49;99147.74;;;-1.80;100.00
25664;BME280;13522;50.018;20.014;2023-03-03T06:06:03;99159.84;;;-1.56;100.00
25664;BME280;13522;50.018;20.014;2023-03-03T06:09:17;99159.53;;;-1.48;100.00
25664;BME280;13522;50.018;20.014;2023-03-03T06:12:31;99160.16;;;-1.42;100.00
25664;BME280;13522;50.018;20.014;2023-03-03T06:18:47;99157.38;;;-1.16;100.00
25664;BME280;13522;50.018;20.014;2023-03-03T06:22:11;99168.21;;;-1.05;100.00
25664;BME280;13522;50.018;20.014;2023-03-03T06:25:23;99170.57;;;-0.99;100.00
25664;BME280;13522;50.018;20.014;2023-03-03T06:28:36;99179.89;;;-0.93;100.00
25664;BME280;13522;50.018;20.014;2023-03-03T06:31:48;99190.93;;;-0.87;100.00
25664;BME280;13522;50.018;20.014;2023-03-03T06:35:00;99186.33;;;-0.80;100.00
25664;BME280;13522;50.018;20.014;2023-03-03T06:38:14;99187.64;;;-0.70;100.00
25664;BME280;13522;50.018;20.014;2023-03-03T06:41:27;99181.18;;;-0.61;100.00
25664;BME280;13522;50.018;20.014;2023-03-03T06:44:39;99184.46;;;-0.56;100.00
25664;BME280;13522;50.018;20.014;2023-03-03T06:47:53;99177.34;;;-0.53;100.00
25664;BME280;13522;50.018;20.014;2023-03-03T06:51:26;99183.28;;;-0.49;100.00
25664;BME280;13522;50.018;20.014;2023-03-03T06:54:40;99169.98;;;-0.43;100.00
25664;BME280;13522;50.018;20.014;2023-03-03T06:57:53;99179.44;;;-0.41;100.00
25664;BME280;13522;50.018;20.014;2023-03-03T07:01:19;99175.86;;;-0.38;100.00
25664;BME280;13522;50.018;20.014;2023-03-03T07:04:32;99177.20;;;-0.30;100.00
25664;BME280;13522;50.018;20.014;2023-03-03T07:07:44;99175.97;;;-0.21;100.00
25664;BME280;13522;50.018;20.014;2023-03-03T07:10:57;99174.92;;;-0.17;100.00
25664;BME280;13522;50.018;20.014;2023-03-03T07:14:14;99175.86;;;-0.18;100.00
25664;BME280;13522;50.018;20.014;2023-03-03T07:17:29;99158.14;;;-0.12;100.00
25664;BME280;13522;50.018;20.014;2023-03-03T07:20:42;99153.70;;;-0.10;100.00
25664;BME280;13522;50.018;20.014;2023-03-03T07:23:54;99149.42;;;0.08;100.00
25664;BME280;13522;50.018;20.014;2023-03-03T07:27:13;99165.20;;;0.25;100.00
25664;BME280;13522;50.018;20.014;2023-03-03T07:30:29;99168.73;;;0.43;100.00
25664;BME280;13522;50.018;20.014;2023-03-03T07:33:44;99158.78;;;0.51;100.00
25664;BME280;13522;50.018;20.014;2023-03-03T07:37:30;99154.45;;;0.68;100.00
25664;BME280;13522;50.018;20.014;2023-03-03T07:40:48;99130.95;;;0.85;100.00
25664;BME280;13522;50.018;20.014;2023-03-03T07:44:16;99130.06;;;1.04;100.00
25664;BME280;13522;50.018;20.014;2023-03-03T07:47:37;99121.09;;;1.26;100.00
25664;BME280;13522;50.018;20.014;2023-03-03T07:50:50;99121.84;;;1.45;100.00
25664;BME280;13522;50.018;20.014;2023-03-03T07:54:21;99122.16;;;1.56;100.00
25664;BME280;13522;50.018;20.014;2023-03-03T07:57:39;99122.89;;;1.75;100.00
25664;BME280;13522;50.018;20.014;2023-03-03T08:04:47;99118.34;;;2.12;100.00
25664;BME280;13522;50.018;20.014;2023-03-03T08:11:01;99133.88;;;2.15;100.00
25664;BME280;13522;50.018;20.014;2023-03-03T08:20:38;99109.72;;;2.10;100.00
25664;BME280;13522;50.018;20.014;2023-03-03T08:23:55;99107.27;;;2.22;100.00
25664;BME280;13522;50.018;20.014;2023-03-03T08:27:07;99130.27;;;2.17;100.00
25664;BME280;13522;50.018;20.014;2023-03-03T08:30:20;99132.64;;;2.22;100.00
25664;BME280;13522;50.018;20.014;2023-03-03T08:33:33;99150.80;;;2.25;100.00
25664;BME280;13522;50.018;20.014;2023-03-03T08:36:45;99144.71;;;2.24;100.00
25664;BME280;13522;50.018;20.014;2023-03-03T08:39:57;99152.33;;;2.29;100.00
25664;BME280;13522;50.018;20.014;2023-03-03T08:43:11;99146.42;;;2.25;100.00
25664;BME280;13522;50.018;20.014;2023-03-03T08:46:26;99132.72;;;2.36;100.00
25664;BME280;13522;50.018;20.014;2023-03-03T08:49:39;99131.05;;;2.50;100.00
25664;BME280;13522;50.018;20.014;2023-03-03T08:52:52;99140.19;;;2.43;100.00
25664;BME280;13522;50.018;20.014;2023-03-03T08:56:04;99128.85;;;2.43;100.00
25664;BME280;13522;50.018;20.014;2023-03-03T08:59:18;99140.00;;;2.46;100.00
25664;BME280;13522;50.018;20.014;2023-03-03T09:02:31;99141.20;;;2.56;100.00
25664;BME280;13522;50.018;20.014;2023-03-03T09:05:44;99146.44;;;2.56;100.00
25664;BME280;13522;50.018;20.014;2023-03-03T09:08:56;99147.20;;;2.58;100.00
25664;BME280;13522;50.018;20.014;2023-03-03T09:12:17;99151.34;;;2.62;100.00
25664;BME280;13522;50.018;20.014;2023-03-03T09:15:33;99147.78;;;2.48;100.00
25664;BME280;13522;50.018;20.014;2023-03-03T09:19:14;99153.88;;;2.48;100.00
25664;BME280;13522;50.018;20.014;2023-03-03T09:22:30;99159.73;;;2.53;100.00
25664;BME280;13522;50.018;20.014;2023-03-03T09:25:44;99146.11;;;2.62;100.00
25664;BME280;13522;50.018;20.014;2023-03-03T09:29:04;99141.86;;;2.76;100.00
25664;BME280;13522;50.018;20.014;2023-03-03T09:32:30;99129.16;;;2.84;100.00
25664;BME280;13522;50.018;20.014;2023-03-03T09:35:46;99135.49;;;3.11;99.39
25664;BME280;13522;50.018;20.014;2023-03-03T09:39:08;99118.99;;;3.09;98.20
25664;BME280;13522;50.018;20.014;2023-03-03T09:42:44;99123.78;;;3.46;98.02
25664;BME280;13522;50.018;20.014;2023-03-03T09:45:59;99131.34;;;3.66;96.44
25664;BME280;13522;50.018;20.014;2023-03-03T09:49:21;99139.11;;;3.68;96.60
25664;BME280;13522;50.018;20.014;2023-03-03T09:52:42;99145.31;;;3.37;97.00
25664;BME280;13522;50.018;20.014;2023-03-03T09:56:00;99137.27;;;3.40;97.28
25664;BME280;13522;50.018;20.014;2023-03-03T09:59:29;99133.08;;;3.51;97.98
25664;BME280;13522;50.018;20.014;2023-03-03T10:02:54;99144.53;;;3.65;98.03
25664;BME280;13522;50.018;20.014;2023-03-03T10:06:16;99133.20;;;3.64;97.64
25664;BME280;13522;50.018;20.014;2023-03-03T10:09:44;99140.69;;;3.56;98.08
25664;BME280;13522;50.018;20.014;2023-03-03T10:13:08;99141.74;;;3.68;98.20
25664;BME280;13522;50.018;20.014;2023-03-03T10:16:36;99134.34;;;3.88;97.14
25664;BME280;13522;50.018;20.014;2023-03-03T10:20:15;99138.47;;;3.92;96.42
25664;BME280;13522;50.018;20.014;2023-03-03T10:27:14;99129.58;;;4.23;95.01
25664;BME280;13522;50.018;20.014;2023-03-03T10:30:39;99134.45;;;4.29;94.44
25664;BME280;13522;50.018;20.014;2023-03-03T10:34:04;99143.74;;;4.20;95.19
25664;BME280;13522;50.018;20.014;2023-03-03T10:37:23;99154.26;;;4.20;96.22
25664;BME280;13522;50.018;20.014;2023-03-03T10:40:42;99149.00;;;4.20;95.33
25664;BME280;13522;50.018;20.014;2023-03-03T10:44:07;99145.83;;;4.15;95.65
25664;BME280;13522;50.018;20.014;2023-03-03T10:47:54;99135.20;;;4.17;95.04
25664;BME280;13522;50.018;20.014;2023-03-03T10:51:28;99141.11;;;4.34;95.07
25664;BME280;13522;50.018;20.014;2023-03-03T10:54:55;99143.95;;;4.31;94.21
25664;BME280;13522;50.018;20.014;2023-03-03T10:58:36;99145.25;;;4.24;94.32
25664;BME280;13522;50.018;20.014;2023-03-03T11:02:00;99141.11;;;4.34;94.55
25664;BME280;13522;50.018;20.014;2023-03-03T11:05:30;99146.56;;;4.46;94.23
25664;BME280;13522;50.018;20.014;2023-03-03T11:08:47;99149.09;;;4.47;95.03
25664;BME280;13522;50.018;20.014;2023-03-03T11:12:06;99142.61;;;4.38;93.02
25664;BME280;13522;50.018;20.014;2023-03-03T11:15:32;99155.02;;;4.22;95.21
25664;BME280;13522;50.018;20.014;2023-03-03T11:19:04;99156.88;;;4.06;94.72
25664;BME280;13522;50.018;20.014;2023-03-03T11:22:36;99156.61;;;4.11;94.93
25664;BME280;13522;50.018;20.014;2023-03-03T11:25:56;99157.73;;;4.07;95.17
25664;BME280;13522;50.018;20.014;2023-03-03T11:29:34;99156.33;;;4.01;94.92
25664;BME280;13522;50.018;20.014;2023-03-03T11:32:57;99157.62;;;3.94;95.33
25664;BME280;13522;50.018;20.014;2023-03-03T11:36:15;99150.86;;;3.90;95.81
25664;BME280;13522;50.018;20.014;2023-03-03T11:39:29;99146.83;;;3.85;95.34
25664;BME280;13522;50.018;20.014;2023-03-03T11:42:49;99142.63;;;3.82;95.68
25664;BME280;13522;50.018;20.014;2023-03-03T11:46:10;99139.41;;;3.77;95.50
25664;BME280;13522;50.018;20.014;2023-03-03T11:49:27;99141.91;;;3.50;95.80
25664;BME280;13522;50.018;20.014;2023-03-03T11:52:46;99148.13;;;3.34;96.56
25664;BME280;13522;50.018;20.014;2023-03-03T11:56:06;99145.50;;;3.34;96.67
25664;BME280;13522;50.018;20.014;2023-03-03T12:03:17;99140.20;;;3.20;96.50
25664;BME280;13522;50.018;20.014;2023-03-03T12:06:39;99136.27;;;3.27;96.98
25664;BME280;13522;50.018;20.014;2023-03-03T12:10:04;99149.39;;;3.27;97.14
25664;BME280;13522;50.018;20.014;2023-03-03T12:13:23;99143.13;;;3.29;96.54
25664;BME280;13522;50.018;20.014;2023-03-03T12:16:45;99146.16;;;3.37;96.51
25664;BME280;13522;50.018;20.014;2023-03-03T12:20:04;99133.98;;;3.36;95.97
25664;BME280;13522;50.018;20.014;2023-03-03T12:23:33;99136.67;;;3.35;95.42
25664;BME280;13522;50.018;20.014;2023-03-03T12:27:00;99136.06;;;3.16;95.66
25664;BME280;13522;50.018;20.014;2023-03-03T12:30:25;99137.10;;;2.98;96.79
25664;BME280;13522;50.018;20.014;2023-03-03T12:33:58;99144.88;;;3.15;96.24
25664;BME280;13522;50.018;20.014;2023-03-03T12:37:39;99141.25;;;3.02;96.32
25664;BME280;13522;50.018;20.014;2023-03-03T12:41:02;99152.69;;;3.01;96.33
25664;BME280;13522;50.018;20.014;2023-03-03T12:44:20;99145.58;;;3.03;96.11
25664;BME280;13522;50.018;20.014;2023-03-03T12:47:37;99138.23;;;2.78;95.87
25664;BME280;13522;50.018;20.014;2023-03-03T12:50:58;99136.13;;;2.69;96.62
25664;BME280;13522;50.018;20.014;2023-03-03T12:54:22;99135.95;;;2.72;96.48
25664;BME280;13522;50.018;20.014;2023-03-03T12:57:47;99135.03;;;2.73;96.54
25664;BME280;13522;50.018;20.014;2023-03-03T13:01:07;99132.23;;;2.60;97.34
25664;BME280;13522;50.018;20.014;2023-03-03T13:04:32;99129.95;;;2.54;98.02
25664;BME280;13522;50.018;20.014;2023-03-03T13:07:52;99127.84;;;2.45;98.29
25664;BME280;13522;50.018;20.014;2023-03-03T13:11:35;99126.23;;;2.43;98.70
25664;BME280;13522;50.018;20.014;2023-03-03T13:15:01;99127.80;;;2.30;97.95
25664;BME280;13522;50.018;20.014;2023-03-03T13:18:27;99119.60;;;2.20;98.85
25664;BME280;13522;50.018;20.014;2023-03-03T13:21:44;99122.05;;;2.08;99.67
25664;BME280;13522;50.018;20.014;2023-03-03T13:25:02;99137.69;;;2.09;100.00
25664;BME280;13522;50.018;20.014;2023-03-03T13:28:24;99143.06;;;2.06;100.00
25664;BME280;13522;50.018;20.014;2023-03-03T13:31:43;99149.13;;;1.91;100.00
25664;BME280;13522;50.018;20.014;2023-03-03T13:34:59;99139.64;;;1.89;100.00
25664;BME280;13522;50.018;20.014;2023-03-03T13:38:17;99141.76;;;1.82;100.00
25664;BME280;13522;50.018;20.014;2023-03-03T13:41:34;99135.81;;;1.78;100.00
25664;BME280;13522;50.018;20.014;2023-03-03T13:44:50;99143.08;;;1.73;100.00
25664;BME280;13522;50.018;20.014;2023-03-03T13:48:07;99143.84;;;1.75;100.00
25664;BME280;13522;50.018;20.014;2023-03-03T13:51:30;99147.59;;;1.87;100.00
25664;BME280;13522;50.018;20.014;2023-03-03T13:54:57;99148.22;;;1.92;100.00
25664;BME280;13522;50.018;20.014;2023-03-03T13:58:20;99146.50;;;1.91;100.00
25664;BME280;13522;50.018;20.014;2023-03-03T14:01:39;99143.12;;;1.89;100.00
25664;BME280;13522;50.018;20.014;2023-03-03T14:04:58;99141.44;;;1.88;100.00
25664;BME280;13522;50.018;20.014;2023-03-03T14:08:19;99136.66;;;1.79;100.00
25664;BME280;13522;50.018;20.014;2023-03-03T14:11:41;99143.52;;;1.82;100.00
25664;BME280;13522;50.018;20.014;2023-03-03T14:15:05;99143.93;;;1.74;100.00
25664;BME280;13522;50.018;20.014;2023-03-03T14:18:32;99139.55;;;1.57;100.00
25664;BME280;13522;50.018;20.014;2023-03-03T14:21:50;99138.69;;;1.57;100.00
25664;BME280;13522;50.018;20.014;2023-03-03T14:25:13;99138.86;;;1.54;100.00
25664;BME280;13522;50.018;20.014;2023-03-03T14:29:11;99137.61;;;1.61;100.00
25664;BME280;13522;50.018;20.014;2023-03-03T14:32:27;99129.30;;;1.53;100.00
25664;BME280;13522;50.018;20.014;2023-03-03T14:36:12;99134.39;;;1.56;100.00
25664;BME280;13522;50.018;20.014;2023-03-03T14:39:41;99136.24;;;1.54;100.00
25664;BME280;13522;50.018;20.014;2023-03-03T14:42:58;99148.02;;;1.45;100.00
25664;BME280;13522;50.018;20.014;2023-03-03T14:46:33;99143.47;;;1.49;100.00
25664;BME280;13522;50.018;20.014;2023-03-03T14:49:47;99143.63;;;1.46;99.92
25664;BME280;13522;50.018;20.014;2023-03-03T14:53:29;99140.08;;;1.47;100.00
25664;BME280;13522;50.018;20.014;2023-03-03T15:02:58;99134.08;;;1.45;100.00
25664;BME280;13522;50.018;20.014;2023-03-03T15:06:39;99132.23;;;1.47;99.50
25664;BME280;13522;50.018;20.014;2023-03-03T15:09:52;99135.70;;;1.47;98.83
25664;BME280;13522;50.018;20.014;2023-03-03T15:13:34;99127.77;;;1.49;98.20
25664;BME280;13522;50.018;20.014;2023-03-03T15:16:47;99131.63;;;1.42;98.59
25664;BME280;13522;50.018;20.014;2023-03-03T15:20:41;99138.84;;;1.37;98.90
25664;BME280;13522;50.018;20.014;2023-03-03T15:23:54;99139.88;;;1.34;99.67
25664;BME280;13522;50.018;20.014;2023-03-03T15:27:40;99138.63;;;1.41;99.58
25664;BME280;13522;50.018;20.014;2023-03-03T15:30:59;99136.18;;;1.38;99.91
25664;BME280;13522;50.018;20.014;2023-03-03T15:34:35;99135.45;;;1.35;100.00
25664;BME280;13522;50.018;20.014;2023-03-03T15:37:52;99125.77;;;1.37;100.00
25664;BME280;13522;50.018;20.014;2023-03-03T15:44:53;99110.52;;;1.45;100.00
25664;BME280;13522;50.018;20.014;2023-03-03T15:59:56;99130.31;;;1.33;99.89
25664;BME280;13522;50.018;20.014;2023-03-03T16:04:09;99129.45;;;1.33;99.25
25664;BME280;13522;50.018;20.014;2023-03-03T16:11:14;99141.77;;;1.31;99.67
25664;BME280;13522;50.018;20.014;2023-03-03T16:14:47;99141.08;;;1.27;99.56
25664;BME280;13522;50.018;20.014;2023-03-03T16:18:09;99139.48;;;1.25;99.53
25664;BME280;13522;50.018;20.014;2023-03-03T16:21:30;99145.08;;;1.17;98.80
25664;BME280;13522;50.018;20.014;2023-03-03T16:24:55;99145.80;;;1.21;99.28
25664;BME280;13522;50.018;20.014;2023-03-03T16:28:15;99149.53;;;1.15;99.33
25664;BME280;13522;50.018;20.014;2023-03-03T16:31:33;99151.71;;;1.24;99.18
25664;BME280;13522;50.018;20.014;2023-03-03T16:34:55;99150.09;;;1.22;99.31
25664;BME280;13522;50.018;20.014;2023-03-03T16:38:15;99150.30;;;1.17;99.86
25664;BME280;13522;50.018;20.014;2023-03-03T16:41:34;99166.94;;;1.16;100.00
25664;BME280;13522;50.018;20.014;2023-03-03T16:44:59;99159.17;;;1.15;100.00
25664;BME280;13522;50.018;20.014;2023-03-03T16:48:20;99174.78;;;1.16;100.00
25664;BME280;13522;50.018;20.014;2023-03-03T16:51:44;99164.62;;;1.10;99.89
25664;BME280;13522;50.018;20.014;2023-03-03T16:55:04;99171.61;;;1.10;100.00
25664;BME280;13522;50.018;20.014;2023-03-03T16:58:28;99169.77;;;1.12;100.00
25664;BME280;13522;50.018;20.014;2023-03-03T17:01:48;99171.61;;;1.10;99.85
25664;BME280;13522;50.018;20.014;2023-03-03T17:05:26;99169.93;;;1.09;99.58
25664;BME280;13522;50.018;20.014;2023-03-03T17:13:00;99175.98;;;1.09;99.60
25664;BME280;13522;50.018;20.014;2023-03-03T17:22:39;99170.70;;;1.11;98.50
25664;BME280;13522;50.018;20.014;2023-03-03T17:26:00;99166.25;;;1.13;99.22
25664;BME280;13522;50.018;20.014;2023-03-03T17:29:55;99169.21;;;1.05;99.38
25664;BME280;13522;50.018;20.014;2023-03-03T17:37:01;99166.38;;;1.10;99.84
25664;BME280;13522;50.018;20.014;2023-03-03T17:44:01;99161.14;;;1.10;99.62
25664;BME280;13522;50.018;20.014;2023-03-03T17:47:21;99159.60;;;1.06;99.30
25664;BME280;13522;50.018;20.014;2023-03-03T17:51:04;99162.22;;;1.06;99.47
25664;BME280;13522;50.018;20.014;2023-03-03T17:54:58;99151.92;;;1.03;98.98
25664;BME280;13522;50.018;20.014;2023-03-03T18:09:22;99164.22;;;1.01;99.21
25664;BME280;13522;50.018;20.014;2023-03-03T18:12:52;99162.44;;;1.01;99.77
25664;BME280;13522;50.018;20.014;2023-03-03T18:16:32;99159.90;;;1.00;99.80
25664;BME280;13522;50.018;20.014;2023-03-03T18:27:40;99178.28;;;0.98;100.00
25664;BME280;13522;50.018;20.014;2023-03-03T18:31:24;99177.80;;;0.90;100.00
25664;BME280;13522;50.018;20.014;2023-03-03T18:34:39;99180.50;;;0.88;100.00
25664;BME280;13522;50.018;20.014;2023-03-03T18:37:52;99181.27;;;0.91;100.00
25664;BME280;13522;50.018;20.014;2023-03-03T18:41:52;99161.98;;;0.93;100.00
25664;BME280;13522;50.018;20.014;2023-03-03T18:49:01;99172.66;;;0.88;100.00
25664;BME280;13522;50.018;20.014;2023-03-03T18:52:26;99164.89;;;0.87;100.00
25664;BME280;13522;50.018;20.014;2023-03-03T18:55:43;99161.42;;;0.86;100.00
25664;BME280;13522;50.018;20.014;2023-03-03T18:58:55;99164.03;;;0.86;100.00
25664;BME280;13522;50.018;20.014;2023-03-03T19:02:36;99162.62;;;0.79;100.00
25664;BME280;13522;50.018;20.014;2023-03-03T19:05:53;99137.06;;;0.67;100.00
25664;BME280;13522;50.018;20.014;2023-03-03T19:13:41;99151.26;;;0.80;100.00
25664;BME280;13522;50.018;20.014;2023-03-03T19:16:57;99147.02;;;0.78;100.00
25664;BME280;13522;50.018;20.014;2023-03-03T19:20:13;99140.94;;;0.77;100.00
25664;BME280;13522;50.018;20.014;2023-03-03T19:23:45;99136.77;;;0.73;100.00
25664;BME280;13522;50.018;20.014;2023-03-03T19:30:25;99144.77;;;0.70;100.00
25664;BME280;13522;50.018;20.014;2023-03-03T19:33:57;99143.84;;;0.71;100.00
25664;BME280;13522;50.018;20.014;2023-03-03T19:37:25;99147.67;;;0.64;100.00
25664;BME280;13522;50.018;20.014;2023-03-03T19:43:53;99149.22;;;0.68;100.00
25664;BME280;13522;50.018;20.014;2023-03-03T19:47:11;99156.13;;;0.69;100.00
25664;BME280;13522;50.018;20.014;2023-03-03T19:53:33;99153.88;;;0.62;100.00
25664;BME280;13522;50.018;20.014;2023-03-03T19:56:46;99148.81;;;0.59;100.00
25664;BME280;13522;50.018;20.014;2023-03-03T20:00:06;99138.36;;;0.59;100.00
25664;BME280;13522;50.018;20.014;2023-03-03T20:03:56;99133.22;;;0.57;100.00
25664;BME280;13522;50.018;20.014;2023-03-03T20:07:29;99142.89;;;0.55;100.00
25664;BME280;13522;50.018;20.014;2023-03-03T20:10:48;99138.48;;;0.56;100.00
25664;BME280;13522;50.018;20.014;2023-03-03T20:14:06;99136.11;;;0.51;100.00
25664;BME280;13522;50.018;20.014;2023-03-03T20:29:55;99134.89;;;0.58;100.00
25664;BME280;13522;50.018;20.014;2023-03-03T20:33:24;99131.59;;;0.55;100.00
25664;BME280;13522;50.018;20.014;2023-03-03T20:46:47;99130.89;;;0.51;100.00
25664;BME280;13522;50.018;20.014;2023-03-03T20:50:14;99134.28;;;0.53;100.00
25664;BME280;13522;50.018;20.014;2023-03-03T20:53:40;99122.28;;;0.49;100.00
25664;BME280;13522;50.018;20.014;2023-03-03T20:57:01;99127.50;;;0.49;100.00
25664;BME280;13522;50.018;20.014;2023-03-03T21:00:21;99129.18;;;0.50;100.00
25664;BME280;13522;50.018;20.014;2023-03-03T21:06:39;99125.66;;;0.51;100.00
25664;BME280;13522;50.018;20.014;2023-03-03T21:10:08;99119.71;;;0.48;100.00
25664;BME280;13522;50.018;20.014;2023-03-03T21:16:34;99118.73;;;0.50;100.00
25664;BME280;13522;50.018;20.014;2023-03-03T21:19:47;99114.44;;;0.49;100.00
25664;BME280;13522;50.018;20.014;2023-03-03T21:23:00;99119.42;;;0.54;100.00
25664;BME280;13522;50.018;20.014;2023-03-03T21:26:13;99111.54;;;0.55;100.00
25664;BME280;13522;50.018;20.014;2023-03-03T21:29:27;99110.52;;;0.58;100.00
25664;BME280;13522;50.018;20.014;2023-03-03T21:32:42;99103.83;;;0.52;100.00
25664;BME280;13522;50.018;20.014;2023-03-03T21:35:59;99088.31;;;0.49;100.00
25664;BME280;13522;50.018;20.014;2023-03-03T21:39:21;99095.98;;;0.52;100.00
25664;BME280;13522;50.018;20.014;2023-03-03T21:42:43;99088.31;;;0.49;100.00
25664;BME280;13522;50.018;20.014;2023-03-03T21:45:55;99095.14;;;0.52;100.00
25664;BME280;13522;50.018;20.014;2023-03-03T21:49:07;99090.92;;;0.49;100.00
25664;BME280;13522;50.018;20.014;2023-03-03T21:52:21;99078.63;;;0.51;100.00
25664;BME280;13522;50.018;20.014;2023-03-03T21:55:33;99072.64;;;0.49;100.00
25664;BME280;13522;50.018;20.014;2023-03-03T21:58:45;99073.25;;;0.54;100.00
25664;BME280;13522;50.018;20.014;2023-03-03T22:01:53;99075.25;;;0.49;100.00
25664;BME280;13522;50.018;20.014;2023-03-03T22:05:01;99068.39;;;0.47;100.00
25664;BME280;13522;50.018;20.014;2023-03-03T22:08:08;99080.48;;;0.49;100.00
25664;BME280;13522;50.018;20.014;2023-03-03T22:11:20;99077.09;;;0.47;100.00
25664;BME280;13522;50.018;20.014;2023-03-03T22:17:33;99068.77;;;0.39;100.00
25664;BME280;13522;50.018;20.014;2023-03-03T22:20:46;99071.99;;;0.44;100.00
25664;BME280;13522;50.018;20.014;2023-03-03T22:24:00;99062.31;;;0.46;100.00
25664;BME280;13522;50.018;20.014;2023-03-03T22:27:13;99058.02;;;0.45;100.00
25664;BME280;13522;50.018;20.014;2023-03-03T22:30:25;99046.08;;;0.40;100.00
25664;BME280;13522;50.018;20.014;2023-03-03T22:33:38;99047.14;;;0.36;100.00
25664;BME280;13522;50.018;20.014;2023-03-03T22:36:50;99037.71;;;0.33;100.00
25664;BME280;13522;50.018;20.014;2023-03-03T22:40:02;99034.62;;;0.25;100.00
25664;BME280;13522;50.018;20.014;2023-03-03T22:43:10;99043.06;;;0.30;100.00
25664;BME280;13522;50.018;20.014;2023-03-03T22:46:23;99029.10;;;0.31;100.00
25664;BME280;13522;50.018;20.014;2023-03-03T22:49:35;99017.11;;;0.27;100.00
25664;BME280;13522;50.018;20.014;2023-03-03T22:52:47;99013.56;;;0.28;100.00
25664;BME280;13522;50.018;20.014;2023-03-03T22:56:00;98997.84;;;0.30;100.00
25664;BME280;13522;50.018;20.014;2023-03-03T22:59:12;99001.73;;;0.21;100.00
25664;BME280;13522;50.018;20.014;2023-03-03T23:02:24;99000.02;;;0.20;100.00
25664;BME280;13522;50.018;20.014;2023-03-03T23:05:37;99001.04;;;0.18;100.00
25664;BME280;13522;50.018;20.014;2023-03-03T23:08:49;98999.73;;;0.26;100.00
25664;BME280;13522;50.018;20.014;2023-03-03T23:12:01;98992.83;;;0.25;100.00
25664;BME280;13522;50.018;20.014;2023-03-03T23:15:13;98990.44;;;0.21;100.00
25664;BME280;13522;50.018;20.014;2023-03-03T23:18:25;98993.13;;;0.19;100.00
25664;BME280;13522;50.018;20.014;2023-03-03T23:21:38;98992.19;;;0.20;100.00
25664;BME280;13522;50.018;20.014;2023-03-03T23:24:50;98992.19;;;0.20;100.00
25664;BME280;13522;50.018;20.014;2023-03-03T23:28:02;98975.75;;;0.18;100.00
25664;BME280;13522;50.018;20.014;2023-03-03T23:31:14;98974.93;;;0.18;100.00
25664;BME280;13522;50.018;20.014;2023-03-03T23:34:23;98960.38;;;0.12;100.00
25664;BME280;13522;50.018;20.014;2023-03-03T23:37:34;98968.08;;;0.15;100.00
25664;BME280;13522;50.018;20.014;2023-03-03T23:40:47;98956.86;;;0.13;100.00